Time;durP1;ratioP1;P1;durP2;ratioP2;P2;SDS_P1;SDS_P2;PMS_P1;PMS_P2;Temp;Humidity;BMP_temperature;BMP_pressure;BME280_temperature;BME280_humidity;BME280_pressure;Samples;Min_cycle;Max_cycle;Signal;HPM_P1;HPM_P2
2022/02/20 00:00:50;;;;;;;3.95;0.85;;;;;;;4.24;100.00;100887.91;5103932;28;20056;-31
2022/02/20 00:03:18;;;;;;;3.15;0.60;;;;;;;4.23;100.00;100883.47;5096440;28;20101;-32
2022/02/20 00:05:46;;;;;;;3.42;0.47;;;;;;;4.23;100.00;100884.31;5102768;28;20050;-30
2022/02/20 00:08:14;;;;;;;3.38;0.50;;;;;;;4.23;100.00;100887.06;5096625;28;20054;-31
2022/02/20 00:10:42;;;;;;;5.43;0.77;;;;;;;4.21;100.00;100908.59;5101139;28;20405;-31
2022/02/20 00:13:11;;;;;;;3.95;0.40;;;;;;;4.20;100.00;100901.41;5098607;28;20046;-31
2022/02/20 00:15:40;;;;;;;4.45;0.60;;;;;;;4.20;100.00;100901.41;5099816;28;20065;-32
2022/02/20 00:18:09;;;;;;;3.38;0.63;;;;;;;4.20;100.00;100906.91;5097091;28;20155;-30
2022/02/20 00:20:36;;;;;;;4.65;0.90;;;;;;;4.23;100.00;100911.09;5098778;28;20038;-31
2022/02/20 00:23:05;;;;;;;8.60;1.58;;;;;;;4.26;100.00;100914.19;5097796;28;20044;-31
2022/02/20 00:25:34;;;;;;;4.15;0.40;;;;;;;4.29;100.00;100915.59;5099783;28;20055;-30
2022/02/20 00:28:04;;;;;;;4.75;0.50;;;;;;;4.29;100.00;100910.91;5098549;28;20075;-31
2022/02/20 00:30:32;;;;;;;5.90;0.70;;;;;;;4.30;100.00;100920.88;5104073;28;20046;-30
2022/02/20 00:33:02;;;;;;;4.28;0.50;;;;;;;4.31;100.00;100922.56;5101692;28;20043;-30
2022/02/20 00:35:32;;;;;;;5.35;0.80;;;;;;;4.33;100.00;100928.66;5104712;28;20047;-31
2022/02/20 00:38:02;;;;;;;5.35;0.80;;;;;;;4.37;100.00;100923.47;5099433;28;20525;-30
2022/02/20 00:40:30;;;;;;;4.07;0.60;;;;;;;4.41;100.00;100925.44;5107077;28;20044;-32
2022/02/20 00:42:58;;;;;;;4.18;0.60;;;;;;;4.44;100.00;100941.50;5097656;28;20043;-32
2022/02/20 00:45:27;;;;;;;3.28;0.70;;;;;;;4.45;100.00;100936.81;5106979;28;20213;-31
2022/02/20 00:47:56;;;;;;;5.28;0.82;;;;;;;4.47;100.00;100945.69;5097871;28;20042;-31
2022/02/20 00:50:27;;;;;;;4.20;0.73;;;;;;;4.49;100.00;100940.72;5105223;28;20047;-32
2022/02/20 00:52:55;;;;;;;2.40;0.60;;;;;;;4.46;100.00;100946.78;5098222;28;20101;-32
2022/02/20 00:55:25;;;;;;;4.65;1.23;;;;;;;4.44;100.00;100947.03;5106966;28;20118;-32
2022/02/20 00:57:53;;;;;;;2.97;0.70;;;;;;;4.44;100.00;100955.31;5096687;28;20527;-31
2022/02/20 01:00:22;;;;;;;2.35;0.55;;;;;;;4.44;100.00;100952.56;5106401;28;20057;-31
2022/02/20 01:02:49;;;;;;;3.63;0.50;;;;;;;4.45;100.00;100958.91;5096593;28;20512;-31
2022/02/20 01:05:17;;;;;;;5.28;0.70;;;;;;;4.47;100.00;100957.56;5105500;28;20055;-32
2022/02/20 01:07:47;;;;;;;5.10;0.60;;;;;;;4.49;100.00;100963.69;5100890;28;20047;-31
2022/02/20 01:10:17;;;;;;;3.00;0.50;;;;;;;4.51;100.00;100966.19;5102009;28;20418;-32
2022/02/20 01:12:45;;;;;;;5.57;0.77;;;;;;;4.55;100.00;100972.03;5101680;28;20055;-31
2022/02/20 01:15:14;;;;;;;3.50;0.52;;;;;;;4.57;100.00;100970.69;5103820;28;20050;-32
2022/02/20 01:17:42;;;;;;;6.20;0.63;;;;;;;4.57;100.00;100972.63;5101411;28;20500;-31
2022/02/20 01:20:11;;;;;;;5.13;0.60;;;;;;;4.58;100.00;100977.06;5104887;28;20490;-32
2022/02/20 01:22:40;;;;;;;4.80;0.65;;;;;;;4.58;100.00;100977.91;5100605;28;20048;-32
2022/02/20 01:25:09;;;;;;;2.60;0.50;;;;;;;4.60;100.00;100972.91;5102684;28;20126;-31
2022/02/20 01:27:37;;;;;;;3.42;0.60;;;;;;;4.64;100.00;100981.53;5102454;28;20040;-33
2022/02/20 01:30:06;;;;;;;4.07;0.60;;;;;;;4.67;100.00;100981.03;5102656;28;20053;-31
2022/02/20 01:32:33;;;;;;;5.30;0.70;;;;;;;4.68;100.00;100978.00;5107157;28;20142;-31
2022/02/20 01:35:02;;;;;;;5.13;0.82;;;;;;;4.70;100.00;100986.03;5104753;28;20163;-32
2022/02/20 01:37:30;;;;;;;3.72;0.60;;;;;;;4.72;100.00;100986.63;5099625;28;20041;-31
2022/02/20 01:39:58;;;;;;;2.42;0.50;;;;;;;4.72;100.00;100992.16;5104531;28;20051;-32
2022/02/20 01:42:27;;;;;;;3.65;0.57;;;;;;;4.71;100.00;100984.94;5097243;28;20093;-32
2022/02/20 01:44:56;;;;;;;4.80;0.70;;;;;;;4.68;100.00;100979.94;5105144;28;20054;-30
2022/02/20 01:47:25;;;;;;;4.68;0.70;;;;;;;4.67;100.00;100979.09;5098423;28;20056;-31
2022/02/20 01:49:54;;;;;;;5.70;0.75;;;;;;;4.67;100.00;100978.25;5105698;28;20048;-31
2022/02/20 01:52:22;;;;;;;3.67;0.55;;;;;;;4.66;100.00;100973.81;5097155;28;20044;-31
2022/02/20 01:54:52;;;;;;;3.00;0.60;;;;;;;4.66;100.00;100965.53;5105989;28;20058;-31
2022/02/20 01:57:23;;;;;;;6.68;0.75;;;;;;;4.66;100.00;100965.53;5097796;28;20134;-31
2022/02/20 02:00:30;;;;;;;2.60;0.40;;;;;;;4.66;100.00;100965.53;5082532;28;20051;-31
2022/02/20 02:03:16;;;;;;;5.07;1.02;;;;;;;4.67;100.00;100967.22;5075082;28;20106;-31
2022/02/20 02:05:56;;;;;;;1.95;0.50;;;;;;;4.68;100.00;100960.59;5102313;28;20313;-33
2022/02/20 02:08:24;;;;;;;3.30;0.50;;;;;;;4.70;100.00;100958.41;5108056;28;20078;-31
2022/02/20 02:11:10;;;;;;;3.85;0.50;;;;;;;4.71;100.00;100957.31;5101785;28;20039;-31
2022/02/20 02:14:10;;;;;;;2.38;0.40;;;;;;;4.72;100.00;100947.94;5093660;28;20063;-32
2022/02/20 02:17:11;;;;;;;3.40;0.52;;;;;;;4.74;100.00;100941.06;5090577;28;20056;-31
2022/02/20 02:20:04;;;;;;;4.03;0.50;;;;;;;4.75;100.00;100941.88;5092361;28;20131;-31
2022/02/20 02:22:45;;;;;;;3.92;0.47;;;;;;;4.77;100.00;100939.69;5096601;28;20289;-33
2022/02/20 02:25:27;;;;;;;2.88;0.52;;;;;;;4.78;100.00;100941.38;5102802;28;20043;-29
2022/02/20 02:28:24;;;;;;;5.38;0.60;;;;;;;4.79;100.00;100949.41;5079304;28;20091;-31
2022/02/20 02:30:56;;;;;;;5.93;0.70;;;;;;;4.84;100.00;100951.38;5099150;28;20131;-31
2022/02/20 02:33:28;;;;;;;5.25;0.63;;;;;;;4.85;100.00;100953.88;5108008;28;20089;-34
2022/02/20 02:35:56;;;;;;;4.50;0.47;;;;;;;4.83;100.00;100946.94;5098529;28;20071;-32
2022/02/20 02:38:27;;;;;;;3.05;0.60;;;;;;;4.82;100.00;100942.50;5106692;28;20071;-34
2022/02/20 02:40:59;;;;;;;;;;;;;;;4.76;100.00;100938.88;5101821;28;20055;-33
2022/02/20 02:43:28;;;;;;;1.95;0.40;;;;;;;4.76;100.00;100932.50;5105448;28;19923;-33
2022/02/20 02:45:56;;;;;;;2.50;0.38;;;;;;;4.80;100.00;100914.28;5102735;28;20077;-31
2022/02/20 02:48:23;;;;;;;2.33;0.40;;;;;;;4.79;100.00;100901.59;5104978;28;20044;-31
2022/02/20 02:50:51;;;;;;;2.35;0.50;;;;;;;4.77;100.00;100901.84;5103402;28;20044;-31
2022/02/20 02:53:20;;;;;;;4.68;0.70;;;;;;;4.80;100.00;100900.47;5096840;28;20073;-32
2022/02/20 02:55:52;;;;;;;3.38;0.50;;;;;;;4.82;100.00;100892.75;5101278;28;20043;-33
2022/02/20 02:58:25;;;;;;;3.72;0.55;;;;;;;4.80;100.00;100890.22;5097393;28;20391;-31
2022/02/20 03:00:56;;;;;;;6.15;0.40;;;;;;;4.84;100.00;100888.63;5100396;28;20101;-31
2022/02/20 03:03:24;;;;;;;3.05;0.40;;;;;;;4.82;100.00;100885.28;5098664;28;20051;-31
2022/02/20 03:05:56;;;;;;;3.72;0.40;;;;;;;4.83;100.00;100888.88;5099846;28;20047;-32
2022/02/20 03:08:27;;;;;;;4.00;0.50;;;;;;;4.83;100.00;100889.72;5098504;28;20044;-31
2022/02/20 03:10:57;;;;;;;3.38;0.40;;;;;;;4.82;100.00;100898.28;5099645;28;20448;-33
2022/02/20 03:13:25;;;;;;;3.95;0.60;;;;;;;4.82;100.00;100889.97;5100767;28;20052;-32
2022/02/20 03:15:53;;;;;;;3.75;0.50;;;;;;;4.79;100.00;100872.00;5098752;28;20506;-31
2022/02/20 03:18:21;;;;;;;6.32;0.70;;;;;;;4.83;100.00;100867.59;5101683;28;20056;-32
2022/02/20 03:20:48;;;;;;;5.10;0.50;;;;;;;4.83;100.00;100862.06;5095457;28;20093;-31
2022/02/20 03:23:16;;;;;;;2.70;0.30;;;;;;;4.80;100.00;100850.69;5103232;28;20054;-32
2022/02/20 03:25:45;;;;;;;3.47;0.40;;;;;;;4.78;100.00;100850.16;5095780;28;20060;-31
2022/02/20 03:28:15;;;;;;;3.25;0.50;;;;;;;4.78;100.00;100841.84;5104509;28;20040;-31
2022/02/20 03:30:53;;;;;;;2.70;0.30;;;;;;;4.75;100.00;100837.69;5094216;28;20047;-31
2022/02/20 03:33:22;;;;;;;4.18;0.60;;;;;;;4.74;100.00;100835.19;5103990;28;20051;-30
2022/02/20 03:35:49;;;;;;;3.60;0.57;;;;;;;4.73;100.00;100830.75;5096722;28;20470;-32
2022/02/20 03:38:19;;;;;;;4.07;0.40;;;;;;;4.75;100.00;100826.63;5102423;28;20065;-30
2022/02/20 03:40:47;;;;;;;7.85;0.80;;;;;;;4.77;100.00;100815.31;5095403;28;20401;-30
2022/02/20 03:43:20;;;;;;;;;;;;;;;4.76;100.00;100819.16;5104429;28;20047;-32
2022/02/20 03:46:01;;;;;;;5.72;0.75;;;;;;;4.74;100.00;100813.91;5094376;28;19920;-30
2022/02/20 03:48:31;;;;;;;4.60;0.60;;;;;;;4.76;100.00;100817.25;5104209;28;20039;-31
2022/02/20 03:51:17;;;;;;;5.35;0.60;;;;;;;4.76;100.00;100810.88;5096613;28;20058;-31
2022/02/20 03:53:46;;;;;;;3.83;0.80;;;;;;;4.77;100.00;100823.59;5102363;28;20516;-31
2022/02/20 03:56:13;;;;;;;7.03;0.60;;;;;;;4.78;100.00;100828.03;5096574;28;20055;-32
2022/02/20 03:58:48;;;;;;;2.50;0.50;;;;;;;4.78;100.00;100823.34;5102700;28;20538;-35
2022/02/20 04:01:16;;;;;;;6.30;0.68;;;;;;;4.79;100.00;100826.94;5094414;28;20066;-34
2022/02/20 04:03:46;;;;;;;3.90;0.70;;;;;;;4.82;100.00;100820.88;5101243;28;20081;-32
2022/02/20 04:06:14;;;;;;;4.60;0.60;;;;;;;4.82;100.00;100812.56;5095592;28;20048;-32
2022/02/20 04:08:47;;;;;;;9.80;1.02;;;;;;;4.79;100.00;100802.06;5101872;28;20048;-38
2022/02/20 04:11:16;;;;;;;6.60;0.70;;;;;;;4.81;100.00;100805.38;5098776;28;20044;-31
2022/02/20 04:13:54;;;;;;;5.03;0.75;;;;;;;4.82;100.00;100804.28;5099461;28;20055;-33
2022/02/20 04:16:30;;;;;;;4.80;0.63;;;;;;;4.85;100.00;100789.94;5103912;28;20138;-30
2022/02/20 04:18:58;;;;;;;4.70;0.70;;;;;;;4.84;100.00;100786.34;5102087;28;20142;-31
2022/02/20 04:21:27;;;;;;;5.53;1.10;;;;;;;4.83;100.00;100779.13;5102543;28;20134;-31
2022/02/20 04:24:03;;;;;;;5.07;0.98;;;;;;;4.84;100.00;100755.09;5099730;28;20456;-31
2022/02/20 04:26:31;;;;;;;7.07;1.02;;;;;;;4.80;100.00;100751.19;5095966;28;20048;-31
2022/02/20 04:29:00;;;;;;;5.30;1.00;;;;;;;4.77;100.00;100752.56;5099736;28;20060;-31
2022/02/20 04:31:29;;;;;;;6.88;0.88;;;;;;;4.77;100.00;100748.97;5095922;28;20050;-32
2022/02/20 04:34:01;;;;;;;6.22;0.70;;;;;;;4.78;100.00;100731.28;5098485;28;20048;-31
2022/02/20 04:36:34;;;;;;;9.90;1.20;;;;;;;4.78;100.00;100725.75;5096479;28;20494;-33
2022/02/20 04:39:03;;;;;;;7.88;1.15;;;;;;;4.81;100.00;100737.09;5098580;28;20044;-32
2022/02/20 04:41:31;;;;;;;7.25;0.80;;;;;;;4.80;100.00;100735.44;5096689;28;20105;-33
2022/02/20 04:44:04;;;;;;;6.68;1.05;;;;;;;4.78;100.00;100723.00;5098579;28;20502;-32
2022/02/20 04:46:35;;;;;;;5.70;0.93;;;;;;;4.77;100.00;100718.56;5098554;28;20553;-32
2022/02/20 04:49:04;;;;;;;3.55;0.88;;;;;;;4.77;100.00;100715.81;5094721;28;20044;-33
2022/02/20 04:52:05;;;;;;;6.38;1.08;;;;;;;4.69;100.00;100706.06;5097364;28;20133;-30
2022/02/20 04:54:59;;;;;;;10.10;1.30;;;;;;;4.69;100.00;100703.28;5109514;28;20051;-33
2022/02/20 04:57:32;;;;;;;7.15;1.77;;;;;;;4.67;100.00;100680.59;5096703;28;20055;-31
2022/02/20 05:00:02;;;;;;;8.20;2.53;;;;;;;4.65;100.00;100668.97;5098078;28;20055;-30
2022/02/20 05:02:50;;;;;;;7.65;2.00;;;;;;;4.63;100.00;100662.03;5097746;28;20456;-31
2022/02/20 05:05:17;;;;;;;6.90;2.40;;;;;;;4.61;100.00;100642.13;5099046;28;20048;-31
2022/02/20 05:07:46;;;;;;;6.97;2.67;;;;;;;4.57;100.00;100630.81;5098960;28;20042;-31
2022/02/20 05:10:16;;;;;;;9.32;3.33;;;;;;;4.55;100.00;100607.28;5101350;28;20047;-32
2022/02/20 05:12:43;;;;;;;9.55;3.60;;;;;;;4.52;100.00;100602.28;5099642;28;20072;-31
2022/02/20 05:15:13;;;;;;;8.55;3.80;;;;;;;4.44;100.00;100579.56;5101344;28;20083;-31
2022/02/20 05:17:50;;;;;;;9.05;4.70;;;;;;;4.42;100.00;100579.00;5100541;28;20048;-31
2022/02/20 05:20:19;;;;;;;8.30;4.15;;;;;;;4.39;100.00;100565.75;5101442;28;20046;-32
2022/02/20 05:22:49;;;;;;;12.10;4.40;;;;;;;4.37;100.00;100565.19;5101100;28;20052;-32
2022/02/20 05:25:17;;;;;;;13.23;4.07;;;;;;;4.38;100.00;100563.25;5099807;28;20138;-31
2022/02/20 05:27:49;;;;;;;7.30;3.17;;;;;;;4.35;100.00;100544.44;5103064;28;20059;-32
2022/02/20 05:30:20;;;;;;;9.70;3.10;;;;;;;4.31;100.00;100538.63;5098256;28;20052;-31
2022/02/20 05:33:02;;;;;;;7.72;2.88;;;;;;;4.27;100.00;100523.66;5102406;28;20131;-31
2022/02/20 05:35:33;;;;;;;10.52;2.70;;;;;;;4.22;100.00;100522.78;5099530;28;20062;-33
2022/02/20 05:38:02;;;;;;;8.25;3.22;;;;;;;4.17;100.00;100506.22;5104652;28;20509;-32
2022/02/20 05:40:33;;;;;;;6.15;2.83;;;;;;;4.15;100.00;100496.25;5098044;28;20075;-31
2022/02/20 05:43:05;;;;;;;6.95;2.90;;;;;;;4.11;100.00;100486.84;5106989;28;20046;-33
2022/02/20 05:45:36;;;;;;;7.22;3.20;;;;;;;4.13;100.00;100492.09;5096611;28;20064;-32
2022/02/20 05:48:19;;;;;;;7.03;3.47;;;;;;;4.13;100.00;100475.53;5101536;28;20142;-34
2022/02/20 05:51:00;;;;;;;8.30;4.30;;;;;;;4.14;100.00;100471.69;5106499;28;20039;-33
2022/02/20 05:53:32;;;;;;;8.02;4.43;;;;;;;4.15;100.00;100462.28;5101629;28;20572;-32
2022/02/20 05:56:00;;;;;;;10.05;5.22;;;;;;;4.18;100.00;100459.00;5107741;28;20555;-31
2022/02/20 05:58:34;;;;;;;9.65;5.55;;;;;;;4.20;100.00;100448.50;5096242;28;20153;-31
2022/02/20 06:01:04;;;;;;;11.50;6.10;;;;;;;4.20;100.00;100447.69;5097214;28;20082;-33
2022/02/20 06:03:32;;;;;;;11.10;6.25;;;;;;;4.21;100.00;100447.41;5106258;28;20048;-31
2022/02/20 06:06:18;;;;;;;11.35;6.53;;;;;;;4.22;100.00;100435.25;5098279;28;20473;-30
2022/02/20 06:09:08;;;;;;;12.38;6.95;;;;;;;4.27;100.00;100426.16;5103254;28;20131;-33
2022/02/20 06:11:43;;;;;;;15.02;7.38;;;;;;;4.32;100.00;100423.44;5107128;28;20059;-33
2022/02/20 06:14:33;;;;;;;11.77;5.88;;;;;;;4.37;100.00;100418.78;5104609;28;20052;-32
2022/02/20 06:17:14;;;;;;;8.98;6.25;;;;;;;4.46;100.00;100408.88;5105775;27;20047;-33
2022/02/20 06:19:48;;;;;;;12.27;5.63;;;;;;;4.57;100.00;100400.63;5103806;28;20052;-31
2022/02/20 06:22:38;;;;;;;13.05;5.45;;;;;;;4.70;100.00;100389.06;5095725;28;20062;-33
2022/02/20 06:25:23;;;;;;;13.35;5.55;;;;;;;4.86;100.00;100385.22;5098741;28;20055;-31
2022/02/20 06:27:57;;;;;;;15.73;5.63;;;;;;;5.01;100.00;100360.34;5100652;28;20070;-30
2022/02/20 06:30:28;;;;;;;11.05;5.13;;;;;;;5.13;100.00;100357.34;5098434;28;20052;-31
2022/02/20 06:32:57;;;;;;;12.70;5.60;;;;;;;5.25;100.00;100362.59;5100655;28;20485;-31
2022/02/20 06:35:25;;;;;;;11.05;5.05;;;;;;;5.35;100.00;100354.31;5097880;28;20482;-31
2022/02/20 06:37:53;;;;;;;18.92;5.88;;;;;;;5.48;100.00;100356.50;5104583;28;20039;-33
2022/02/20 06:40:24;;;;;;;24.98;5.93;;;;;;;5.63;100.00;100359.25;5104018;28;20132;-33
2022/02/20 06:42:54;;;;;;;23.15;5.28;;;;;;;5.81;100.00;100355.06;5105140;28;20047;-32
2022/02/20 06:45:25;;;;;;;21.25;4.60;;;;;;;5.97;100.00;100344.84;5102630;28;20062;-31
2022/02/20 06:47:52;;;;;;;28.33;4.38;;;;;;;6.13;100.00;100340.91;5106555;28;20506;-32
2022/02/20 06:50:44;;;;;;;27.55;3.58;;;;;;;6.32;100.00;100339.16;5104378;28;20118;-31
2022/02/20 06:53:18;;;;;;;28.80;4.13;;;;;;;6.48;100.00;100349.06;5104709;28;20042;-32
2022/02/20 06:56:00;;;;;;;29.00;4.53;;;;;;;6.64;100.00;100324.00;5105105;28;20047;-33
2022/02/20 06:58:28;;;;;;;39.38;4.63;;;;;;;6.79;100.00;100343.34;5100527;28;20046;-31
2022/02/20 07:00:56;;;;;;;43.22;4.93;;;;;;;6.90;100.00;100320.81;5102802;28;20138;-31
2022/02/20 07:03:24;;;;;;;41.35;5.28;;;;;;;6.98;100.00;100324.91;5097153;28;20048;-32
2022/02/20 07:05:53;;;;;;;47.17;5.25;;;;;;;7.09;100.00;100317.34;5104471;28;20384;-31
2022/02/20 07:08:21;;;;;;;47.15;6.10;;;;;;;7.17;100.00;100298.13;5096143;28;20064;-31
2022/02/20 07:10:48;;;;;;;49.20;5.43;;;;;;;7.25;100.00;100291.94;5105528;28;20502;-31
2022/02/20 07:13:16;;;;;;;41.00;4.95;;;;;;;7.30;100.00;100296.63;5096468;28;20075;-32
2022/02/20 07:15:44;;;;;;;44.33;6.15;;;;;;;7.36;100.00;100305.75;5104463;28;20055;-32
2022/02/20 07:18:12;;;;;;;41.55;5.43;;;;;;;7.40;100.00;100310.38;5096842;28;20040;-31
2022/02/20 07:20:41;;;;;;;45.20;5.78;;;;;;;7.45;100.00;100309.53;5104480;28;20196;-32
2022/02/20 07:23:11;;;;;;;50.95;5.97;;;;;;;7.50;100.00;100278.94;5095209;28;20522;-32
2022/02/20 07:25:39;;;;;;;49.45;5.55;;;;;;;7.57;100.00;100276.66;5104916;28;20063;-31
2022/02/20 07:28:08;;;;;;;36.60;4.38;;;;;;;7.61;100.00;100302.69;5096763;28;20059;-31
2022/02/20 07:30:36;;;;;;;51.80;5.70;;;;;;;7.66;100.00;100287.94;5101828;28;20071;-34
2022/02/20 07:33:05;;;;;;;50.40;5.57;;;;;;;7.68;100.00;100286.53;5098899;28;20039;-31
2022/02/20 07:35:33;;;;;;;43.90;4.65;;;;;;;7.68;100.00;100267.09;5102032;28;20047;-34
2022/02/20 07:38:01;;;;;;;48.95;5.97;;;;;;;7.68;100.00;100269.88;5098844;28;20465;-34
2022/02/20 07:40:30;;;;;;;42.70;5.28;;;;;;;7.70;100.00;100262.06;5101762;28;20054;-33
2022/02/20 07:42:58;;;;;;;46.65;5.80;;;;;;;7.72;100.00;100281.22;5097777;28;20048;-31
2022/02/20 07:45:27;;;;;;;39.47;4.90;;;;;;;7.73;100.00;100255.09;5099193;28;20047;-32
2022/02/20 07:47:59;;;;;;;39.58;4.85;;;;;;;7.75;100.00;100250.91;5098844;28;20047;-32
2022/02/20 07:50:29;;;;;;;33.97;4.97;;;;;;;7.77;100.00;100232.00;5103612;28;20056;-31
2022/02/20 07:52:58;;;;;;;39.33;4.53;;;;;;;7.78;100.00;100244.78;5104495;28;20043;-32
2022/02/20 07:55:27;;;;;;;37.58;4.50;;;;;;;7.82;100.00;100228.31;5103125;28;20043;-32
2022/02/20 07:57:57;;;;;;;50.20;5.72;;;;;;;7.84;100.00;100259.41;5100195;28;20126;-32
2022/02/20 08:00:28;;;;;;;39.75;6.15;;;;;;;7.86;100.00;100255.22;5103927;28;20047;-33
2022/02/20 08:02:56;;;;;;;40.80;5.17;;;;;;;7.89;100.00;100259.34;5101003;28;20043;-32
2022/02/20 08:05:24;;;;;;;41.90;5.72;;;;;;;7.91;100.00;100265.44;5105130;28;20413;-35
2022/02/20 08:07:52;;;;;;;37.17;4.63;;;;;;;7.93;100.00;100271.53;5098200;28;20053;-31
2022/02/20 08:10:19;;;;;;;38.67;4.95;;;;;;;7.94;100.00;100267.63;5106552;28;20047;-33
2022/02/20 08:12:48;;;;;;;39.72;5.00;;;;;;;7.97;100.00;100260.66;5096839;28;20082;-31
2022/02/20 08:15:17;;;;;;;38.13;5.22;;;;;;;8.00;100.00;100276.72;5104488;28;20048;-32
2022/02/20 08:17:46;;;;;;;49.75;6.07;;;;;;;8.00;100.00;100274.75;5097379;28;20052;-31
2022/02/20 08:20:15;;;;;;;33.60;5.50;;;;;;;8.03;100.00;100265.00;5105082;28;20055;-31
2022/02/20 08:22:43;;;;;;;40.35;5.75;;;;;;;8.02;100.00;100275.28;5097359;28;20040;-31
2022/02/20 08:25:12;;;;;;;41.78;6.38;;;;;;;8.07;100.00;100266.06;5106044;28;20070;-30
2022/02/20 08:27:40;;;;;;;35.08;5.97;;;;;;;8.13;100.00;100264.88;5097366;27;20044;-30
2022/02/20 08:30:11;;;;;;;42.60;5.90;;;;;;;8.11;100.00;100273.53;5103771;28;20052;-32
2022/02/20 08:32:40;;;;;;;44.30;6.13;;;;;;;8.10;100.00;100265.47;5099249;28;20042;-32
2022/02/20 08:35:10;;;;;;;41.13;5.22;;;;;;;8.12;100.00;100268.78;5103457;28;20056;-32
2022/02/20 08:37:40;;;;;;;38.08;5.97;;;;;;;8.17;100.00;100279.84;5101015;28;20460;-32
2022/02/20 08:40:09;;;;;;;44.83;6.35;;;;;;;8.16;100.00;100281.81;5100431;28;20067;-32
2022/02/20 08:42:37;;;;;;;36.22;5.70;;;;;;;8.17;100.00;100254.84;5099073;28;20506;-31
2022/02/20 08:45:07;;;;;;;41.05;6.20;;;;;;;8.20;100.00;100260.59;5103704;28;20134;-30
2022/02/20 08:47:35;;;;;;;44.20;5.75;;;;;;;8.25;100.00;100245.81;5100591;28;20048;-31
2022/02/20 08:50:09;;;;;;;43.80;6.93;;;;;;;8.23;100.00;100260.00;5103308;28;20502;-32
2022/02/20 08:52:37;;;;;;;37.03;4.88;;;;;;;8.27;100.00;100252.75;5101679;28;20044;-33
2022/02/20 08:55:06;;;;;;;41.08;5.63;;;;;;;8.27;100.00;100249.13;5102154;28;20482;-32
2022/02/20 08:57:35;;;;;;;50.17;6.95;;;;;;;8.29;100.00;100260.78;5098512;28;20414;-33
2022/02/20 09:00:05;;;;;;;44.33;5.75;;;;;;;8.32;100.00;100232.41;5097852;28;20056;-31
2022/02/20 09:02:34;;;;;;;41.37;6.77;;;;;;;8.30;100.00;100215.19;5096523;28;20048;-31
2022/02/20 09:05:02;;;;;;;46.17;7.25;;;;;;;8.30;100.00;100241.03;5100085;28;20294;-31
2022/02/20 09:07:31;;;;;;;39.10;6.03;;;;;;;8.34;100.00;100249.63;5094873;28;20055;-33
2022/02/20 09:09:59;;;;;;;40.05;6.45;;;;;;;8.33;100.00;100231.28;5100653;28;20044;-31
2022/02/20 09:12:27;;;;;;;48.00;6.43;;;;;;;8.37;100.00;100220.41;5094046;28;20054;-31
2022/02/20 09:14:55;;;;;;;51.90;6.72;;;;;;;8.39;100.00;100212.59;5100535;28;20047;-33
2022/02/20 09:17:23;;;;;;;48.47;6.43;;;;;;;8.39;100.00;100218.97;5094202;28;20052;-32
2022/02/20 09:19:51;;;;;;;42.80;6.68;;;;;;;8.40;100.00;100198.38;5102624;28;20066;-33
2022/02/20 09:22:19;;;;;;;53.03;7.45;;;;;;;8.41;100.00;100204.75;5093026;28;20051;-31
2022/02/20 09:24:48;;;;;;;49.08;6.82;;;;;;;8.42;100.00;100206.41;5102455;28;20385;-32
2022/02/20 09:27:16;;;;;;;51.28;7.00;;;;;;;8.43;100.00;100219.19;5093526;28;20047;-31
2022/02/20 09:29:44;;;;;;;47.60;6.63;;;;;;;8.47;100.00;100201.59;5101547;28;20479;-32
2022/02/20 09:32:12;;;;;;;55.33;7.20;;;;;;;8.47;100.00;100198.00;5094174;28;20048;-31
2022/02/20 09:34:40;;;;;;;51.85;7.50;;;;;;;8.43;100.00;100200.56;5099286;28;20066;-32
2022/02/20 09:37:07;;;;;;;57.47;6.88;;;;;;;8.46;100.00;100213.84;5095672;28;20050;-33
2022/02/20 09:39:35;;;;;;;50.47;6.55;;;;;;;8.47;100.00;100211.91;5099132;28;20175;-30
2022/02/20 09:42:05;;;;;;;45.28;6.30;;;;;;;8.49;100.00;100206.88;5096161;28;20048;-31
2022/02/20 09:44:33;;;;;;;43.25;6.65;;;;;;;8.47;100.00;100226.63;5097611;28;20056;-32
2022/02/20 09:47:03;;;;;;;44.83;6.82;;;;;;;8.55;100.00;100219.56;5094819;28;20079;-34
2022/02/20 09:49:31;;;;;;;57.08;7.05;;;;;;;8.54;100.00;100221.53;5098245;28;20143;-32
2022/02/20 09:51:59;;;;;;;45.45;7.40;;;;;;;8.56;100.00;100204.53;5095818;28;20046;-33
2022/02/20 09:54:27;;;;;;;48.78;7.47;;;;;;;8.53;100.00;100205.97;5101403;28;20040;-32
2022/02/20 09:56:55;;;;;;;47.90;6.70;;;;;;;8.53;100.00;100222.66;5101839;28;20418;-31
2022/02/20 09:59:24;;;;;;;44.15;6.68;;;;;;;8.55;100.00;100234.31;5098691;28;20127;-31
2022/02/20 10:02:03;;;;;;;51.97;7.70;;;;;;;8.55;100.00;100222.34;5103872;28;20096;-32
2022/02/20 10:04:50;;;;;;;52.22;7.07;;;;;;;8.53;100.00;100213.50;5100062;28;20047;-31
2022/02/20 10:07:27;;;;;;;48.47;7.78;;;;;;;8.53;100.00;100232.94;5101038;28;20512;-32
2022/02/20 10:09:55;;;;;;;48.05;7.90;;;;;;;8.51;100.00;100219.34;5105585;28;20079;-32
2022/02/20 10:12:25;;;;;;;53.65;7.22;;;;;;;8.50;100.00;100209.34;5097024;28;20052;-31
2022/02/20 10:14:55;;;;;;;50.90;7.50;;;;;;;8.53;100.00;100247.69;5096997;28;20048;-31
2022/02/20 10:17:25;;;;;;;46.38;7.65;;;;;;;8.51;100.00;100210.19;5102843;28;20052;-32
2022/02/20 10:20:12;;;;;;;52.80;8.40;;;;;;;8.50;100.00;100209.34;5104546;28;20117;-32
2022/02/20 10:22:59;;;;;;;60.08;8.05;;;;;;;8.47;100.00;100218.28;5105319;28;20500;-33
2022/02/20 10:25:47;;;;;;;53.35;8.02;;;;;;;8.51;100.00;100205.44;5103795;28;20133;-31
2022/02/20 10:28:33;;;;;;;55.60;8.65;;;;;;;8.52;100.00;100207.09;5100012;28;20051;-31
2022/02/20 10:31:06;;;;;;;56.53;8.02;;;;;;;8.54;100.00;100202.06;5100096;28;20127;-31
2022/02/20 10:33:34;;;;;;;63.22;9.40;;;;;;;8.52;100.00;100184.03;5096968;28;20056;-31
2022/02/20 10:36:03;;;;;;;65.40;8.52;;;;;;;8.56;100.00;100185.91;5100267;28;20047;-34
2022/02/20 10:38:36;;;;;;;62.53;9.10;;;;;;;8.57;100.00;100184.78;5100395;28;20040;-32
2022/02/20 10:41:06;;;;;;;60.83;9.88;;;;;;;8.55;100.00;100184.25;5101261;28;20412;-32
2022/02/20 10:43:37;;;;;;;60.85;9.43;;;;;;;8.55;100.00;100170.34;5101127;28;20048;-30
2022/02/20 10:46:09;;;;;;;58.00;8.63;;;;;;;8.56;100.00;100185.91;5105628;28;20552;-31
2022/02/20 10:48:41;;;;;;;53.73;8.07;;;;;;;8.60;100.00;100186.94;5103552;28;20051;-33
2022/02/20 10:51:10;;;;;;;64.97;9.88;;;;;;;8.61;100.00;100185.81;5105955;27;20413;-32
2022/02/20 10:53:38;;;;;;;64.07;9.05;;;;;;;8.60;100.00;100186.94;5102116;28;20494;-31
2022/02/20 10:56:06;;;;;;;60.75;9.40;;;;;;;8.61;100.00;100168.28;5107869;28;20615;-33
2022/02/20 10:58:35;;;;;;;71.25;9.65;;;;;;;8.62;100.00;100179.13;5100734;28;20489;-32
2022/02/20 11:01:05;;;;;;;70.00;9.57;;;;;;;8.61;100.00;100171.91;5108033;28;20058;-32
2022/02/20 11:03:40;;;;;;;75.13;10.35;;;;;;;8.57;100.00;100198.69;5099265;28;20490;-31
2022/02/20 11:06:08;;;;;;;71.47;9.93;;;;;;;8.57;100.00;100182.00;5108683;28;20468;-31
2022/02/20 11:08:36;;;;;;;65.90;10.25;;;;;;;8.56;100.00;100185.09;5098738;28;20043;-32
2022/02/20 11:11:36;;;;;;;67.55;10.35;;;;;;;8.57;100.00;100164.50;5108551;28;20051;-30
2022/02/20 11:13:55;;;;;;;66.43;8.95;;;;;;;8.56;100.00;100179.53;5098424;28;20502;-32
2022/02/20 11:16:24;;;;;;;67.22;10.70;;;;;;;8.59;100.00;100168.59;5107911;28;20050;-32
2022/02/20 11:18:55;;;;;;;55.63;9.23;;;;;;;8.61;100.00;100166.34;5099264;28;20048;-32
2022/02/20 11:21:27;;;;;;;66.18;9.95;;;;;;;8.58;100.00;100175.31;5108738;28;20047;-32
2022/02/20 11:23:59;;;;;;;60.73;10.20;;;;;;;8.60;100.00;100159.13;5098483;28;20051;-31
2022/02/20 11:26:28;;;;;;;64.30;8.93;;;;;;;8.58;100.00;100168.94;5108651;28;20043;-32
2022/02/20 11:28:56;;;;;;;67.93;9.82;;;;;;;8.56;100.00;100176.75;5098523;28;20055;-31
2022/02/20 11:31:24;;;;;;;74.90;10.10;;;;;;;8.51;100.00;100188.75;5108447;28;20044;-31
2022/02/20 11:33:55;;;;;;;73.20;10.13;;;;;;;8.54;100.00;100160.34;5099135;28;20047;-34
2022/02/20 11:36:26;;;;;;;68.97;10.63;;;;;;;8.54;100.00;100140.06;5106803;28;20050;-34
2022/02/20 11:39:09;;;;;;;65.07;10.13;;;;;;;8.52;100.00;100139.53;5100826;28;20052;-30
2022/02/20 11:41:38;;;;;;;60.42;8.82;;;;;;;8.53;100.00;100153.13;5096523;28;20127;-32